TimePST,TemperatureF,Dew PointF,Humidity,Sea Level PressureIn,VisibilityMPH,Wind Direction,Wind SpeedMPH,Gust SpeedMPH,PrecipitationIn,Events,Conditions,WindDirDegrees,DateUTC
12:15 AM,42.8,37.4,81,30.23,10.0,Calm,Calm,-,N/A,,Clear,0,2013-01-20 08:15:00
12:35 AM,44.6,35.6,71,30.23,10.0,Calm,Calm,-,N/A,,Clear,0,2013-01-20 08:35:00
12:55 AM,42.8,35.6,76,30.23,9.0,Calm,Calm,-,N/A,,Clear,0,2013-01-20 08:55:00
1:15 AM,42.8,35.6,76,30.23,10.0,Calm,Calm,-,N/A,,Clear,0,2013-01-20 09:15:00
1:35 AM,41.0,35.6,81,30.23,10.0,Calm,Calm,-,N/A,,Clear,0,2013-01-20 09:35:00
1:55 AM,41.0,35.6,81,30.23,10.0,Calm,Calm,-,N/A,,Clear,0,2013-01-20 09:55:00
2:15 AM,41.0,35.6,81,30.23,10.0,Calm,Calm,-,N/A,,Clear,0,2013-01-20 10:15:00
2:35 AM,41.0,35.6,81,30.23,10.0,Calm,Calm,-,N/A,,Clear,0,2013-01-20 10:35:00
2:55 AM,41.0,35.6,81,30.24,10.0,Calm,Calm,-,N/A,,Clear,0,2013-01-20 10:55:00
3:15 AM,39.2,35.6,87,30.24,10.0,Calm,Calm,-,N/A,,Clear,0,2013-01-20 11:15:00
3:35 AM,39.2,35.6,87,30.23,10.0,Calm,Calm,-,N/A,,Clear,0,2013-01-20 11:35:00
3:55 AM,39.2,35.6,87,30.23,10.0,Calm,Calm,-,N/A,,Clear,0,2013-01-20 11:55:00
4:15 AM,39.2,35.6,87,30.22,10.0,Calm,Calm,-,N/A,,Clear,0,2013-01-20 12:15:00
4:35 AM,37.4,33.8,87,30.22,10.0,Calm,Calm,-,N/A,,Clear,0,2013-01-20 12:35:00
4:55 AM,39.2,33.8,81,30.22,8.0,Calm,Calm,-,N/A,,Clear,0,2013-01-20 12:55:00
5:15 AM,39.2,33.8,81,30.22,10.0,Calm,Calm,-,N/A,,Clear,0,2013-01-20 13:15:00
5:35 AM,39.2,33.8,81,30.22,7.0,Calm,Calm,-,N/A,,Clear,0,2013-01-20 13:35:00
5:55 AM,37.4,33.8,87,30.22,10.0,Calm,Calm,-,N/A,,Clear,0,2013-01-20 13:55:00
6:15 AM,37.4,33.8,87,30.22,10.0,Calm,Calm,-,N/A,,Clear,0,2013-01-20 14:15:00
6:35 AM,37.4,33.8,87,30.22,10.0,Calm,Calm,-,N/A,,Clear,0,2013-01-20 14:35:00
6:47 AM,37.4,33.8,87,30.22,20.0,Calm,Calm,-,N/A,,Partly Cloudy,0,2013-01-20 14:47:00
6:55 AM,37.4,33.8,87,30.22,10.0,Calm,Calm,-,N/A,,Clear,0,2013-01-20 14:55:00
7:49 AM,37.4,33.8,87,30.23,20.0,Calm,Calm,-,N/A,,Scattered Clouds,0,2013-01-20 15:49:00
8:45 AM,12.2,-9999,N/A,-9999,20.0,Calm,Calm,-,N/A,,Clear,0,2013-01-20 16:45:00
8:53 AM,44.6,39.2,81,30.24,20.0,Calm,Calm,-,N/A,,Scattered Clouds,0,2013-01-20 16:53:00
10:50 AM,51.8,39.2,62,30.23,25.0,ENE,3.5,-,N/A,,Partly Cloudy,60,2013-01-20 18:50:00
11:52 AM,55.4,39.2,54,30.20,30.0,Calm,Calm,-,N/A,,Partly Cloudy,0,2013-01-20 19:52:00
12:47 PM,59.0,39.2,48,30.18,30.0,Calm,Calm,-,N/A,,Partly Cloudy,0,2013-01-20 20:47:00
1:53 PM,62.6,33.8,34,30.15,30.0,Calm,Calm,-,N/A,,Partly Cloudy,0,2013-01-20 21:53:00
2:47 PM,62.6,32.0,32,30.14,30.0,Calm,Calm,-,N/A,,Partly Cloudy,0,2013-01-20 22:47:00
3:49 PM,64.4,32.0,30,30.15,30.0,Calm,Calm,-,N/A,,Clear,0,2013-01-20 23:49:00
5:49 PM,57.2,35.6,44,30.15,30.0,Calm,Calm,-,N/A,,Clear,0,2013-01-21 01:49:00
6:47 PM,53.6,35.6,51,30.15,30.0,Calm,Calm,-,N/A,,Clear,0,2013-01-21 02:47:00
7:47 PM,50.0,39.2,66,30.17,20.0,Calm,Calm,-,N/A,,Clear,0,2013-01-21 03:47:00
8:47 PM,48.2,35.6,62,30.18,20.0,Calm,Calm,-,N/A,,Clear,0,2013-01-21 04:47:00
9:15 PM,46.4,35.6,66,30.18,10.0,Calm,Calm,-,N/A,,Clear,0,2013-01-21 05:15:00
9:35 PM,46.4,35.6,66,30.18,9.0,Calm,Calm,-,N/A,,Clear,0,2013-01-21 05:35:00
9:55 PM,46.4,35.6,66,30.19,9.0,Calm,Calm,-,N/A,,Clear,0,2013-01-21 05:55:00
10:15 PM,44.6,35.6,71,30.19,9.0,Calm,Calm,-,N/A,,Clear,0,2013-01-21 06:15:00
10:35 PM,44.6,35.6,71,30.19,7.0,Calm,Calm,-,N/A,,Clear,0,2013-01-21 06:35:00
10:55 PM,44.6,35.6,71,30.19,9.0,Calm,Calm,-,N/A,,Clear,0,2013-01-21 06:55:00
11:15 PM,42.8,33.8,70,30.18,7.0,Calm,Calm,-,N/A,,Clear,0,2013-01-21 07:15:00
11:35 PM,42.8,33.8,70,30.18,9.0,Calm,Calm,-,N/A,,Clear,0,2013-01-21 07:35:00
11:55 PM,41.0,33.8,76,30.18,7.0,Calm,Calm,-,N/A,,Clear,0,2013-01-21 07:55:00